createdAt,value
2023-03-06T00:02:49.989Z,100516.34
2023-03-06T00:07:53.118Z,100512.84
2023-03-06T00:12:58.874Z,100501.63
2023-03-06T00:18:05.133Z,100493.84
2023-03-06T00:23:09.200Z,100499.81
2023-03-06T00:28:16.081Z,100497.19
2023-03-06T00:33:19.137Z,100474.56
2023-03-06T00:38:22.114Z,100504.69
2023-03-06T00:43:25.778Z,100507.13
2023-03-06T00:48:28.772Z,100490.56
2023-03-06T00:53:31.958Z,100458.41
2023-03-06T00:58:35.404Z,100470.50
2023-03-06T01:03:38.524Z,100450.72
2023-03-06T01:08:41.457Z,100456.66
2023-03-06T01:13:44.815Z,100436.78
2023-03-06T01:18:50.181Z,100469.50
2023-03-06T01:23:53.154Z,100443.69
2023-03-06T01:28:57.786Z,100464.47
2023-03-06T01:34:00.818Z,100434.41
2023-03-06T01:39:04.162Z,100474.34
2023-03-06T01:44:07.121Z,100479.63
2023-03-06T01:49:38.385Z,100463.94
2023-03-06T01:54:47.015Z,100470.03
2023-03-06T01:59:56.305Z,100469.19
2023-03-06T02:05:02.412Z,100446.66
2023-03-06T02:10:07.289Z,100467.34
2023-03-06T02:15:12.321Z,100476.81
2023-03-06T02:20:34.212Z,100478.63
2023-03-06T02:25:50.028Z,100476.91
2023-03-06T02:30:56.086Z,100457.00
2023-03-06T02:36:02.090Z,100464.75
2023-03-06T02:41:08.096Z,100460.44
2023-03-06T02:46:11.611Z,100457.81
2023-03-06T02:51:14.726Z,100456.13
2023-03-06T02:56:17.777Z,100438.94
2023-03-06T03:01:21.005Z,100453.59
2023-03-06T03:06:24.308Z,100440.69
2023-03-06T03:11:27.671Z,100445.97
2023-03-06T03:16:31.186Z,100405.38
2023-03-06T03:21:35.228Z,100423.50
2023-03-06T03:26:38.374Z,100409.56
2023-03-06T03:31:47.423Z,100394.94
2023-03-06T03:36:50.600Z,100399.16
2023-03-06T03:41:53.785Z,100411.41
2023-03-06T03:46:56.922Z,100413.13
2023-03-06T03:52:00.881Z,100419.97
2023-03-06T03:57:07.277Z,100401.91
2023-03-06T04:02:15.204Z,100410.47
2023-03-06T04:07:26.889Z,100417.25
2023-03-06T04:12:30.356Z,100415.59
2023-03-06T04:17:35.301Z,100410.19
2023-03-06T04:22:41.198Z,100414.66
2023-03-06T04:27:44.605Z,100414.59
2023-03-06T04:32:47.688Z,100417.09
2023-03-06T04:37:50.801Z,100410.03
2023-03-06T04:42:57.989Z,100403.63
2023-03-06T04:48:01.561Z,100381.38
2023-03-06T04:53:05.168Z,100408.50
2023-03-06T04:58:08.276Z,100407.56
2023-03-06T05:03:13.011Z,100406.34
2023-03-06T05:08:16.951Z,100371.69
2023-03-06T05:13:19.892Z,100395.38
2023-03-06T05:18:23.924Z,100409.69
2023-03-06T05:23:31.155Z,100400.31
2023-03-06T05:28:34.201Z,100387.03
2023-03-06T05:33:37.580Z,100390.78
2023-03-06T05:38:40.598Z,100411.38
2023-03-06T05:43:43.672Z,100401.69
2023-03-06T05:48:47.070Z,100386.94
2023-03-06T05:53:53.275Z,100392.63
2023-03-06T05:58:56.176Z,100383.41
2023-03-06T06:03:59.234Z,100396.94
2023-03-06T06:09:02.205Z,100400.91
2023-03-06T06:14:05.919Z,100395.25
2023-03-06T06:19:08.939Z,100386.53
2023-03-06T06:24:12.259Z,100367.59
2023-03-06T06:29:15.886Z,100338.50
2023-03-06T06:34:20.081Z,100356.88
2023-03-06T06:39:24.410Z,100340.00
2023-03-06T06:44:27.440Z,100342.56
2023-03-06T06:49:30.446Z,100353.69
2023-03-06T06:54:34.975Z,100347.75
2023-03-06T06:59:38.122Z,100328.72
2023-03-06T07:04:56.101Z,100319.63
2023-03-06T07:10:07.389Z,100335.03
2023-03-06T07:15:13.688Z,100334.25
2023-03-06T07:20:16.937Z,100324.81
2023-03-06T07:25:20.479Z,100333.56
2023-03-06T07:30:24.680Z,100315.09
2023-03-06T07:35:27.716Z,100343.13
2023-03-06T07:40:30.750Z,100329.44
2023-03-06T07:45:34.105Z,100344.84
2023-03-06T07:50:39.322Z,100355.97
2023-03-06T07:55:42.327Z,100321.72
2023-03-06T08:00:45.582Z,100314.66
2023-03-06T08:05:48.782Z,100331.63
2023-03-06T08:10:53.382Z,100317.16
2023-03-06T08:15:57.202Z,100326.50
2023-03-06T08:21:08.467Z,100318.31
2023-03-06T08:26:14.024Z,100305.03
2023-03-06T08:31:32.637Z,100322.72
2023-03-06T08:36:36.162Z,100321.03
2023-03-06T08:41:42.442Z,100292.09
2023-03-06T08:46:45.443Z,100324.78
2023-03-06T08:51:48.542Z,100297.88
2023-03-06T08:56:51.635Z,100313.00
2023-03-06T09:01:54.664Z,100301.16
2023-03-06T09:06:57.936Z,100300.88
2023-03-06T09:12:00.972Z,100289.59
2023-03-06T09:17:03.930Z,100286.19
2023-03-06T09:22:07.068Z,100287.44
2023-03-06T09:27:10.075Z,100285.59
2023-03-06T09:32:13.129Z,100246.81
2023-03-06T09:37:17.414Z,100279.91
2023-03-06T09:42:23.862Z,100276.69
2023-03-06T09:47:45.204Z,100273.34
2023-03-06T09:53:12.202Z,100263.47
2023-03-06T09:58:24.094Z,100267.78
2023-03-06T10:03:48.974Z,100271.69
2023-03-06T10:09:00.941Z,100281.28
2023-03-06T10:14:28.788Z,100286.66
2023-03-06T10:19:37.769Z,100282.97
2023-03-06T10:25:02.266Z,100290.97
2023-03-06T10:30:30.335Z,100293.63
2023-03-06T10:35:48.470Z,100277.31
2023-03-06T10:41:02.735Z,100290.09
2023-03-06T10:46:07.713Z,100279.34
2023-03-06T10:51:25.764Z,100275.56
2023-03-06T10:56:38.020Z,100270.50
2023-03-06T11:01:55.579Z,100245.13
2023-03-06T11:07:26.076Z,100278.13
2023-03-06T11:12:29.106Z,100278.81
2023-03-06T11:17:32.496Z,100266.66
2023-03-06T11:22:38.994Z,100274.06
2023-03-06T11:27:44.461Z,100293.34
2023-03-06T11:32:55.762Z,100290.63
2023-03-06T11:38:17.252Z,100311.81
2023-03-06T11:43:28.370Z,100310.19
2023-03-06T11:48:49.788Z,100295.63
2023-03-06T11:53:54.231Z,100320.28
2023-03-06T11:59:43.908Z,100329.53
2023-03-06T12:05:13.386Z,100325.06
2023-03-06T12:10:23.789Z,100327.97
2023-03-06T12:15:37.310Z,100318.31
2023-03-06T12:21:04.477Z,100328.09
2023-03-06T12:26:19.391Z,100318.84
2023-03-06T12:32:00.658Z,100331.50
2023-03-06T12:37:40.529Z,100334.56
2023-03-06T12:43:14.085Z,100334.53
2023-03-06T12:48:24.999Z,100301.75
2023-03-06T12:53:31.004Z,100338.78
2023-03-06T12:58:34.985Z,100341.47
2023-03-06T13:04:14.120Z,100352.16
2023-03-06T13:09:43.103Z,100353.13
2023-03-06T13:14:54.160Z,100376.72
2023-03-06T13:20:15.757Z,100383.78
2023-03-06T13:25:21.470Z,100381.22
2023-03-06T13:30:45.281Z,100382.22
2023-03-06T13:35:53.834Z,100393.59
2023-03-06T13:41:25.321Z,100390.16
2023-03-06T13:46:31.325Z,100393.38
2023-03-06T13:51:56.244Z,100396.66
2023-03-06T13:57:17.729Z,100405.34
2023-03-06T14:03:14.441Z,100405.75
2023-03-06T14:08:20.689Z,100406.41
2023-03-06T14:13:45.468Z,100413.66
2023-03-06T14:18:53.016Z,100426.94
2023-03-06T14:24:01.644Z,100421.09
2023-03-06T14:29:04.622Z,100417.66
2023-03-06T14:34:15.820Z,100443.00
2023-03-06T14:39:23.616Z,100458.66
2023-03-06T14:44:26.918Z,100474.69
2023-03-06T14:49:29.902Z,100482.06
2023-03-06T14:54:39.766Z,100489.16
2023-03-06T14:59:55.061Z,100488.69
2023-03-06T15:05:03.746Z,100496.72
2023-03-06T15:10:10.792Z,100512.59
2023-03-06T15:15:14.844Z,100510.00
2023-03-06T15:20:36.551Z,100533.91
2023-03-06T15:25:39.667Z,100531.50
2023-03-06T15:30:42.714Z,100559.28
2023-03-06T15:35:57.648Z,100563.13
2023-03-06T15:41:02.710Z,100575.47
2023-03-06T15:46:07.366Z,100566.16
2023-03-06T15:51:10.727Z,100589.63
2023-03-06T15:56:14.444Z,100575.09
2023-03-06T16:01:18.548Z,100583.81
2023-03-06T16:06:24.712Z,100602.16
2023-03-06T16:11:41.877Z,100609.13
2023-03-06T16:16:46.262Z,100621.38
2023-03-06T16:21:49.506Z,100623.13
2023-03-06T16:26:55.225Z,100634.47
2023-03-06T16:32:00.968Z,100645.78
2023-03-06T16:37:04.077Z,100651.94
2023-03-06T16:42:10.672Z,100669.31
2023-03-06T16:47:14.667Z,100649.41
2023-03-06T16:52:18.284Z,100676.28
2023-03-06T16:57:21.444Z,100682.41
2023-03-06T17:02:24.396Z,100668.56
2023-03-06T17:07:27.525Z,100656.53
2023-03-06T17:12:30.574Z,100690.38
2023-03-06T17:17:34.345Z,100691.22
2023-03-06T17:22:37.510Z,100693.88
2023-03-06T17:27:40.575Z,100699.94
2023-03-06T17:32:43.631Z,100730.34
2023-03-06T17:37:46.634Z,100731.25
2023-03-06T17:42:51.098Z,100758.16
2023-03-06T17:47:54.741Z,100761.63
2023-03-06T17:52:57.735Z,100747.75
2023-03-06T17:58:00.716Z,100774.63
2023-03-06T18:03:03.661Z,100757.28
2023-03-06T18:08:08.616Z,100757.28
2023-03-06T18:13:11.570Z,100790.25
2023-03-06T18:18:15.005Z,100774.66
2023-03-06T18:23:18.354Z,100794.59
2023-03-06T18:28:21.319Z,100798.94
2023-03-06T18:33:24.303Z,100803.25
2023-03-06T18:38:27.319Z,100788.50
2023-03-06T18:43:30.362Z,100798.91
2023-03-06T18:48:33.499Z,100779.78
2023-03-06T18:53:36.960Z,100795.41
2023-03-06T18:58:39.997Z,100795.38
2023-03-06T19:03:43.617Z,100813.63
2023-03-06T19:08:46.706Z,100813.59
2023-03-06T19:13:49.710Z,100825.72
2023-03-06T19:18:55.433Z,100849.13
2023-03-06T19:23:59.017Z,100851.69
2023-03-06T19:29:01.916Z,100845.56
2023-03-06T19:34:04.867Z,100849.91
2023-03-06T19:39:08.537Z,100866.31
2023-03-06T19:44:12.540Z,100888.06
2023-03-06T19:49:18.288Z,100894.13
2023-03-06T19:54:23.722Z,100898.44
2023-03-06T19:59:27.211Z,100899.22
2023-03-06T20:04:34.900Z,100913.09
2023-03-06T20:09:38.399Z,100910.47
2023-03-06T20:14:41.902Z,100905.19
2023-03-06T20:19:44.881Z,100894.69
2023-03-06T20:24:47.941Z,100900.69
2023-03-06T20:29:50.815Z,100915.44
2023-03-06T20:34:53.793Z,100920.63
2023-03-06T20:39:56.735Z,100924.00
2023-03-06T20:44:59.688Z,100915.25
2023-03-06T20:50:02.624Z,100928.28
2023-03-06T20:55:06.317Z,100939.59
2023-03-06T21:00:09.917Z,100948.19
2023-03-06T21:05:13.193Z,100939.41
2023-03-06T21:10:16.302Z,100968.03
2023-03-06T21:15:19.847Z,100969.81
2023-03-06T21:20:23.754Z,100951.41
2023-03-06T21:25:26.728Z,100976.59
2023-03-06T21:30:30.256Z,100982.63
2023-03-06T21:35:38.027Z,100958.19
2023-03-06T21:40:41.326Z,100973.81
2023-03-06T21:45:48.529Z,100995.53
2023-03-06T21:50:51.497Z,100991.09
2023-03-06T21:55:54.413Z,100997.03
2023-03-06T22:00:57.535Z,100991.81
2023-03-06T22:06:08.655Z,100999.56
2023-03-06T22:11:14.628Z,101003.81
2023-03-06T22:16:17.998Z,101007.25
2023-03-06T22:21:22.423Z,101011.66
2023-03-06T22:26:29.524Z,101022.94
2023-03-06T22:31:32.537Z,101005.63
2023-03-06T22:36:35.492Z,101009.06
2023-03-06T22:41:38.912Z,101043.69
2023-03-06T22:46:42.198Z,101051.63
2023-03-06T22:51:45.128Z,101060.19
2023-03-06T22:56:48.042Z,101047.13
2023-03-06T23:01:50.970Z,101074.88
2023-03-06T23:06:54.000Z,101058.28
2023-03-06T23:11:57.045Z,101064.38
2023-03-06T23:17:18.529Z,101068.72
2023-03-06T23:22:39.724Z,101064.31
2023-03-06T23:28:01.153Z,101091.28
2023-03-06T23:33:04.177Z,101063.50
2023-03-06T23:38:07.519Z,101087.06
2023-03-06T23:43:11.954Z,101066.13
2023-03-06T23:48:14.864Z,101098.41
2023-03-06T23:53:17.940Z,101093.25
2023-03-06T23:58:20.981Z,101101.13
